Time;durP1;ratioP1;P1;durP2;ratioP2;P2;SDS_P1;SDS_P2;PMS_P1;PMS_P2;Temp;Humidity;BMP_temperature;BMP_pressure;BME280_temperature;BME280_humidity;BME280_pressure;Samples;Min_cycle;Max_cycle;Signal;HPM_P1;HPM_P2
2024/03/04 00:00:46;;;;;;;20.50;9.00;;;;;;;;;;7417927;19;19917;-84
2024/03/04 00:03:32;;;;;;;19.40;9.32;;;;;;;;;;7417745;19;20009;-84
2024/03/04 00:06:19;;;;;;;21.40;9.02;;;;;;;;;;7416208;19;19917;-84
2024/03/04 00:09:04;;;;;;;18.90;9.75;;;;;;;;;;7416603;19;20344;-84
2024/03/04 00:11:49;;;;;;;16.70;7.57;;;;;;;;;;7416249;19;19907;-84
2024/03/04 00:14:33;;;;;;;16.92;8.13;;;;;;;;;;7414518;19;19911;-84
2024/03/04 00:17:17;;;;;;;15.10;7.07;;;;;;;;;;7412901;19;19919;-84
2024/03/04 00:20:05;;;;;;;17.88;7.07;;;;;;;;;;7415537;19;19915;-84
2024/03/04 00:22:54;;;;;;;20.10;8.35;;;;;;;;;;7413385;19;19925;-84
2024/03/04 00:25:41;;;;;;;16.52;8.18;;;;;;;;;;7413942;19;19922;-84
2024/03/04 00:28:27;;;;;;;17.05;7.70;;;;;;;;;;7415346;19;19914;-84
2024/03/04 00:31:12;;;;;;;16.63;8.07;;;;;;;;;;7413598;19;19914;-85
2024/03/04 00:33:56;;;;;;;15.63;8.07;;;;;;;;;;7415989;19;19911;-85
2024/03/04 00:36:41;;;;;;;17.35;7.53;;;;;;;;;;7420818;19;19910;-84
2024/03/04 00:39:27;;;;;;;20.88;8.68;;;;;;;;;;7423725;19;19919;-84
2024/03/04 00:42:14;;;;;;;15.02;7.85;;;;;;;;;;7422159;19;19927;-84
2024/03/04 00:45:00;;;;;;;17.58;8.27;;;;;;;;;;7419063;19;19914;-80
2024/03/04 00:47:47;;;;;;;19.55;7.75;;;;;;;;;;7416692;19;19978;-80
2024/03/04 00:50:33;;;;;;;15.57;8.10;;;;;;;;;;7417871;19;19966;-80
2024/03/04 00:53:20;;;;;;;14.65;7.22;;;;;;;;;;7414380;19;19924;-80
2024/03/04 00:56:07;;;;;;;15.63;7.28;;;;;;;;;;7416882;19;19970;-80
2024/03/04 00:58:54;;;;;;;15.15;7.07;;;;;;;;;;7416728;19;20332;-80
2024/03/04 01:01:38;;;;;;;16.10;8.27;;;;;;;;;;7415253;19;19914;-80
2024/03/04 01:04:23;;;;;;;14.93;7.10;;;;;;;;;;7414763;19;19910;-79
2024/03/04 01:07:09;;;;;;;19.17;7.78;;;;;;;;;;7415815;19;19929;-79
2024/03/04 01:09:54;;;;;;;15.75;7.38;;;;;;;;;;7417851;19;19921;-79
2024/03/04 01:12:43;;;;;;;13.75;7.10;;;;;;;;;;7416010;19;19919;-79
2024/03/04 01:15:29;;;;;;;19.85;7.45;;;;;;;;;;7413275;19;19936;-79
2024/03/04 01:18:17;;;;;;;19.70;7.35;;;;;;;;;;7415038;19;19914;-79
2024/03/04 01:21:06;;;;;;;17.17;7.63;;;;;;;;;;7416861;19;19919;-79
2024/03/04 01:23:53;;;;;;;15.77;7.65;;;;;;;;;;7415548;19;19915;-79
2024/03/04 01:26:37;;;;;;;17.85;8.10;;;;;;;;;;7414582;19;19933;-79
2024/03/04 01:29:26;;;;;;;14.23;6.47;;;;;;;;;;7415436;19;19929;-79
2024/03/04 01:32:15;;;;;;;18.30;7.55;;;;;;;;;;7414711;19;19914;-79
2024/03/04 01:35:04;;;;;;;15.85;7.20;;;;;;;;;;7414549;19;19918;-79
2024/03/04 01:37:51;;;;;;;15.18;6.82;;;;;;;;;;7414964;19;19918;-79
2024/03/04 01:40:38;;;;;;;16.95;6.95;;;;;;;;;;7414657;19;20029;-79
2024/03/04 01:43:27;;;;;;;14.50;6.60;;;;;;;;;;7413839;19;19922;-79
2024/03/04 01:46:16;;;;;;;16.17;6.75;;;;;;;;;;7411429;19;19923;-79
2024/03/04 01:49:01;;;;;;;18.73;7.50;;;;;;;;;;7415438;19;19918;-79
2024/03/04 01:51:48;;;;;;;19.67;8.27;;;;;;;;;;7415947;19;20339;-79
2024/03/04 01:54:38;;;;;;;16.70;6.68;;;;;;;;;;7414092;19;19914;-79
2024/03/04 01:57:24;;;;;;;15.93;6.75;;;;;;;;;;7414030;19;19925;-79
2024/03/04 02:00:11;;;;;;;15.55;6.82;;;;;;;;;;7413662;19;20038;-79
2024/03/04 02:03:01;;;;;;;13.98;6.55;;;;;;;;;;7414072;19;19978;-79
2024/03/04 02:05:47;;;;;;;14.98;6.78;;;;;;;;;;7414657;19;19929;-79
2024/03/04 02:08:33;;;;;;;15.20;6.97;;;;;;;;;;7413953;19;19933;-80
2024/03/04 02:11:19;;;;;;;14.73;6.82;;;;;;;;;;7416208;19;19911;-80
2024/03/04 02:14:08;;;;;;;12.77;6.05;;;;;;;;;;7414812;19;19915;-80
2024/03/04 02:16:54;;;;;;;13.88;6.25;;;;;;;;;;7412026;19;19915;-80
2024/03/04 02:19:46;;;;;;;17.02;7.60;;;;;;;;;;7413474;19;19922;-80
2024/03/04 02:22:35;;;;;;;16.95;7.15;;;;;;;;;;7416868;19;19922;-80
2024/03/04 02:25:23;;;;;;;14.63;7.65;;;;;;;;;;7412637;19;19978;-80
2024/03/04 02:28:08;;;;;;;14.52;7.68;;;;;;;;;;7412519;19;19990;-80
2024/03/04 02:30:53;;;;;;;17.80;8.55;;;;;;;;;;7413206;19;19915;-80
2024/03/04 02:33:37;;;;;;;15.30;7.75;;;;;;;;;;7414566;19;19919;-80
2024/03/04 02:36:22;;;;;;;15.10;8.15;;;;;;;;;;7413847;19;19918;-80
2024/03/04 02:39:12;;;;;;;19.10;9.00;;;;;;;;;;7415127;19;19926;-80
2024/03/04 02:41:56;;;;;;;20.80;9.02;;;;;;;;;;7414050;19;19930;-80
2024/03/04 02:44:41;;;;;;;24.75;9.65;;;;;;;;;;7413238;19;19923;-80
2024/03/04 02:47:27;;;;;;;23.65;9.55;;;;;;;;;;7413017;19;19919;-80
2024/03/04 02:50:12;;;;;;;24.08;10.10;;;;;;;;;;7413419;19;19981;-80
2024/03/04 02:52:56;;;;;;;22.70;10.25;;;;;;;;;;7414408;19;19911;-80
2024/03/04 02:55:43;;;;;;;25.45;10.70;;;;;;;;;;7410195;19;19911;-80
2024/03/04 02:58:28;;;;;;;25.38;10.50;;;;;;;;;;7409931;19;19914;-80
2024/03/04 03:01:14;;;;;;;23.30;9.98;;;;;;;;;;7412505;19;19915;-80
2024/03/04 03:04:03;;;;;;;23.63;9.77;;;;;;;;;;7411482;19;19915;-80
2024/03/04 03:06:50;;;;;;;21.60;9.50;;;;;;;;;;7412176;19;19919;-80
2024/03/04 03:09:36;;;;;;;22.75;10.02;;;;;;;;;;7411612;19;19910;-80
2024/03/04 03:12:26;;;;;;;23.08;11.05;;;;;;;;;;7413583;19;20356;-80
2024/03/04 03:15:10;;;;;;;21.20;10.27;;;;;;;;;;7411215;19;19919;-80
2024/03/04 03:17:59;;;;;;;22.38;9.68;;;;;;;;;;7410435;19;19925;-80
2024/03/04 03:20:43;;;;;;;23.75;10.38;;;;;;;;;;7411147;19;19928;-80
2024/03/04 03:23:27;;;;;;;22.00;9.98;;;;;;;;;;7412548;19;19978;-80
2024/03/04 03:26:14;;;;;;;22.40;10.02;;;;;;;;;;7411088;19;19922;-80
2024/03/04 03:29:03;;;;;;;25.13;11.75;;;;;;;;;;7412154;19;19941;-80
2024/03/04 03:31:50;;;;;;;21.48;11.38;;;;;;;;;;7411736;19;19918;-80
2024/03/04 03:34:35;;;;;;;23.60;11.02;;;;;;;;;;7411007;19;19918;-80
2024/03/04 03:37:19;;;;;;;25.63;10.77;;;;;;;;;;7409749;19;19953;-80
2024/03/04 03:40:04;;;;;;;24.17;10.63;;;;;;;;;;7412312;19;19951;-80
2024/03/04 03:42:55;;;;;;;22.88;10.00;;;;;;;;;;7412504;19;19933;-80
2024/03/04 03:45:42;;;;;;;29.13;12.20;;;;;;;;;;7413847;19;19914;-80
2024/03/04 03:48:29;;;;;;;29.42;12.43;;;;;;;;;;7410467;19;19925;-80
2024/03/04 03:51:18;;;;;;;26.45;12.18;;;;;;;;;;7411341;19;19910;-80
2024/03/04 03:54:09;;;;;;;24.85;11.48;;;;;;;;;;7412031;19;19914;-80
2024/03/04 03:56:56;;;;;;;24.52;12.00;;;;;;;;;;7411649;19;20420;-80
2024/03/04 03:59:43;;;;;;;27.73;12.27;;;;;;;;;;7411085;19;19919;-80
2024/03/04 04:02:30;;;;;;;32.88;12.55;;;;;;;;;;7412095;19;19922;-80
2024/03/04 04:05:17;;;;;;;24.90;11.73;;;;;;;;;;7411921;19;19926;-80
2024/03/04 04:08:04;;;;;;;28.13;12.60;;;;;;;;;;7410318;19;19921;-80
2024/03/04 04:10:51;;;;;;;29.08;13.95;;;;;;;;;;7415450;19;19925;-80
2024/03/04 04:13:35;;;;;;;31.02;13.43;;;;;;;;;;7416943;19;19929;-80
2024/03/04 04:16:22;;;;;;;26.90;12.20;;;;;;;;;;7421310;19;20336;-80
2024/03/04 04:19:09;;;;;;;31.75;13.98;;;;;;;;;;7422083;19;19914;-80
2024/03/04 04:21:53;;;;;;;28.38;13.20;;;;;;;;;;7422133;19;20238;-80
2024/03/04 04:24:40;;;;;;;30.48;13.90;;;;;;;;;;7421604;19;20331;-80
2024/03/04 04:27:25;;;;;;;32.15;14.65;;;;;;;;;;7418476;19;19928;-80
2024/03/04 04:30:11;;;;;;;31.20;12.82;;;;;;;;;;7418980;19;19942;-80
2024/03/04 04:32:58;;;;;;;33.63;14.02;;;;;;;;;;7418154;19;20329;-80
2024/03/04 04:35:47;;;;;;;30.95;13.55;;;;;;;;;;7418779;19;19923;-80
2024/03/04 04:38:34;;;;;;;34.53;13.57;;;;;;;;;;7415645;19;20263;-80
2024/03/04 04:41:21;;;;;;;32.45;14.55;;;;;;;;;;7418840;19;19910;-80
2024/03/04 04:44:07;;;;;;;38.13;15.20;;;;;;;;;;7421109;19;19918;-80
2024/03/04 04:46:52;;;;;;;30.80;13.82;;;;;;;;;;7420549;19;19918;-80
2024/03/04 04:49:41;;;;;;;34.17;13.95;;;;;;;;;;7420664;19;19919;-80
2024/03/04 04:52:27;;;;;;;33.58;15.07;;;;;;;;;;7422090;19;19910;-80
2024/03/04 04:55:14;;;;;;;33.05;13.88;;;;;;;;;;7421416;19;19929;-81
2024/03/04 04:58:00;;;;;;;34.13;14.68;;;;;;;;;;7417226;19;19918;-80
2024/03/04 05:00:52;;;;;;;31.85;14.32;;;;;;;;;;7420169;19;19915;-80
2024/03/04 05:03:41;;;;;;;34.70;15.45;;;;;;;;;;7420760;19;19918;-80
2024/03/04 05:06:28;;;;;;;38.83;15.70;;;;;;;;;;7419643;19;19928;-80
2024/03/04 05:09:18;;;;;;;37.20;14.20;;;;;;;;;;7420722;19;19911;-80
2024/03/04 05:12:05;;;;;;;32.47;13.93;;;;;;;;;;7423032;19;20371;-80
2024/03/04 05:14:49;;;;;;;36.33;15.00;;;;;;;;;;7420148;19;19927;-80
2024/03/04 05:17:37;;;;;;;31.13;13.13;;;;;;;;;;7419081;19;19922;-80
2024/03/04 05:20:23;;;;;;;32.80;14.20;;;;;;;;;;7420127;19;20365;-80
2024/03/04 05:23:10;;;;;;;32.90;13.35;;;;;;;;;;7419622;19;19910;-80
2024/03/04 05:25:57;;;;;;;33.92;13.65;;;;;;;;;;7419712;19;19914;-80
2024/03/04 05:28:45;;;;;;;32.92;14.57;;;;;;;;;;7418338;19;19915;-80
2024/03/04 05:31:34;;;;;;;30.15;14.63;;;;;;;;;;7419137;19;19966;-80
2024/03/04 05:34:21;;;;;;;38.08;14.90;;;;;;;;;;7419676;19;19911;-80
2024/03/04 05:37:07;;;;;;;29.73;12.40;;;;;;;;;;7418654;19;19918;-80
2024/03/04 05:39:55;;;;;;;31.00;13.27;;;;;;;;;;7419096;19;19924;-80
2024/03/04 05:42:44;;;;;;;31.38;13.30;;;;;;;;;;7419015;19;19918;-80
2024/03/04 05:45:34;;;;;;;35.63;14.02;;;;;;;;;;7420362;19;19911;-80
2024/03/04 05:48:19;;;;;;;27.63;11.77;;;;;;;;;;7418922;19;19964;-80
2024/03/04 05:51:05;;;;;;;29.75;13.13;;;;;;;;;;7420393;19;20391;-80
2024/03/04 05:53:52;;;;;;;34.55;13.88;;;;;;;;;;7417786;19;20338;-80
2024/03/04 05:56:43;;;;;;;25.77;11.88;;;;;;;;;;7416345;19;19913;-80
2024/03/04 05:59:30;;;;;;;30.50;12.82;;;;;;;;;;7416911;19;20317;-80
2024/03/04 06:02:17;;;;;;;29.63;11.77;;;;;;;;;;7419936;19;19922;-80
2024/03/04 06:05:03;;;;;;;26.38;11.57;;;;;;;;;;7419486;19;19923;-80
2024/03/04 06:07:51;;;;;;;26.52;11.23;;;;;;;;;;7416165;19;20279;-81
2024/03/04 06:10:38;;;;;;;25.42;11.65;;;;;;;;;;7420025;19;19940;-81
2024/03/04 06:13:22;;;;;;;27.45;12.13;;;;;;;;;;7415641;19;20249;-81
2024/03/04 06:16:14;;;;;;;27.25;12.18;;;;;;;;;;7419626;19;20339;-81
2024/03/04 06:19:01;;;;;;;31.38;12.40;;;;;;;;;;7417793;19;19915;-81
2024/03/04 06:21:45;;;;;;;30.45;12.88;;;;;;;;;;7415836;19;19933;-81
2024/03/04 06:24:31;;;;;;;34.22;13.45;;;;;;;;;;7417907;19;19944;-81
2024/03/04 06:27:16;;;;;;;34.60;14.00;;;;;;;;;;7418988;19;20267;-81
2024/03/04 06:30:05;;;;;;;33.70;14.52;;;;;;;;;;7418352;19;19974;-81
2024/03/04 06:32:51;;;;;;;38.08;13.48;;;;;;;;;;7417932;19;20257;-81
2024/03/04 06:35:38;;;;;;;38.50;14.55;;;;;;;;;;7419269;19;19947;-81
2024/03/04 06:38:24;;;;;;;34.30;13.25;;;;;;;;;;7414193;19;19954;-81
2024/03/04 06:41:08;;;;;;;37.65;14.13;;;;;;;;;;7417413;19;19921;-81
2024/03/04 06:43:55;;;;;;;37.15;13.63;;;;;;;;;;7421510;19;19902;-81
2024/03/04 06:46:44;;;;;;;39.90;15.27;;;;;;;;;;7421418;19;19922;-79
2024/03/04 06:49:34;;;;;;;33.97;14.10;;;;;;;;;;7405956;19;19918;-79
2024/03/04 06:52:21;;;;;;;36.72;12.77;;;;;;;;;;7401817;19;19982;-78
2024/03/04 06:55:08;;;;;;;35.90;13.65;;;;;;;;;;7403312;19;19966;-78
2024/03/04 06:57:55;;;;;;;39.05;14.23;;;;;;;;;;7407247;19;19914;-78
2024/03/04 07:00:40;;;;;;;39.20;15.85;;;;;;;;;;7410995;19;19974;-78
2024/03/04 07:03:24;;;;;;;38.53;13.85;;;;;;;;;;7405931;19;19926;-81
2024/03/04 07:06:14;;;;;;;40.25;15.32;;;;;;;;;;7414313;19;19919;-81
2024/03/04 07:08:58;;;;;;;30.80;12.73;;;;;;;;;;7414476;19;19927;-82
2024/03/04 07:11:45;;;;;;;35.05;14.82;;;;;;;;;;7416293;19;19919;-81
2024/03/04 07:14:31;;;;;;;38.22;14.23;;;;;;;;;;7415401;19;19949;-81
2024/03/04 07:17:18;;;;;;;37.40;14.85;;;;;;;;;;7415609;19;19930;-82
2024/03/04 07:20:09;;;;;;;36.35;14.50;;;;;;;;;;7415833;19;21167;-82
2024/03/04 07:22:55;;;;;;;45.70;17.25;;;;;;;;;;7432751;19;19926;-81
2024/03/04 07:25:42;;;;;;;39.58;16.00;;;;;;;;;;7442302;19;19929;-81
2024/03/04 07:28:35;;;;;;;45.63;17.90;;;;;;;;;;7431053;19;20273;-81
2024/03/04 07:31:25;;;;;;;45.83;17.45;;;;;;;;;;7411455;19;19914;-82
2024/03/04 07:34:09;;;;;;;45.78;16.30;;;;;;;;;;7411779;19;19923;-82
2024/03/04 07:36:57;;;;;;;47.00;16.10;;;;;;;;;;7412593;19;19934;-82
2024/03/04 07:39:44;;;;;;;44.78;16.23;;;;;;;;;;7408260;19;19962;-82
2024/03/04 07:42:29;;;;;;;45.58;17.63;;;;;;;;;;7413821;19;19914;-82
2024/03/04 07:45:13;;;;;;;54.15;18.40;;;;;;;;;;7413259;19;19928;-82
2024/03/04 07:48:02;;;;;;;55.65;18.05;;;;;;;;;;7416594;19;19915;-81
2024/03/04 07:50:55;;;;;;;48.92;18.25;;;;;;;;;;7413471;19;19920;-81
2024/03/04 07:53:39;;;;;;;44.42;16.15;;;;;;;;;;7414129;19;19930;-81
2024/03/04 07:56:28;;;;;;;46.40;17.23;;;;;;;;;;7416702;19;20340;-82
2024/03/04 07:59:14;;;;;;;40.95;15.95;;;;;;;;;;7413641;19;19922;-81
2024/03/04 08:02:00;;;;;;;37.03;15.82;;;;;;;;;;7405528;19;19911;-81
2024/03/04 08:04:45;;;;;;;42.85;16.90;;;;;;;;;;7403229;19;19925;-82
2024/03/04 08:07:29;;;;;;;47.10;16.65;;;;;;;;;;7402291;19;20272;-81
2024/03/04 08:10:14;;;;;;;45.35;17.80;;;;;;;;;;7413734;19;19928;-81
2024/03/04 08:13:03;;;;;;;41.40;15.57;;;;;;;;;;7414414;19;20677;-81
2024/03/04 08:15:48;;;;;;;43.50;17.50;;;;;;;;;;7416158;19;19936;-81
2024/03/04 08:18:34;;;;;;;45.47;16.13;;;;;;;;;;7411865;19;19921;-81
2024/03/04 08:21:21;;;;;;;40.60;16.55;;;;;;;;;;7413427;19;19955;-81
2024/03/04 08:24:06;;;;;;;45.92;17.15;;;;;;;;;;7411789;19;19985;-81
2024/03/04 08:26:52;;;;;;;44.70;17.15;;;;;;;;;;7415901;19;19915;-81
2024/03/04 08:29:45;;;;;;;43.85;16.73;;;;;;;;;;7419843;19;19915;-80
2024/03/04 08:32:32;;;;;;;45.97;16.17;;;;;;;;;;7441917;19;19914;-80
2024/03/04 08:35:16;;;;;;;43.15;15.75;;;;;;;;;;7442241;19;19911;-80
2024/03/04 08:38:00;;;;;;;39.70;15.80;;;;;;;;;;7445314;19;19955;-80
2024/03/04 08:40:47;;;;;;;37.90;15.77;;;;;;;;;;7446916;19;19907;-80
2024/03/04 08:43:32;;;;;;;46.83;15.85;;;;;;;;;;7446067;19;19906;-81
2024/03/04 08:46:21;;;;;;;42.60;15.57;;;;;;;;;;7425448;19;19918;-81
2024/03/04 08:49:10;;;;;;;41.60;15.60;;;;;;;;;;7421372;19;19914;-81
2024/03/04 08:51:56;;;;;;;38.88;14.75;;;;;;;;;;7419344;19;19917;-81
2024/03/04 08:54:41;;;;;;;43.63;16.23;;;;;;;;;;7421521;19;19939;-81
2024/03/04 08:57:28;;;;;;;38.15;15.00;;;;;;;;;;7423593;19;20475;-81
2024/03/04 09:00:14;;;;;;;44.70;16.02;;;;;;;;;;7423541;19;19950;-82
2024/03/04 09:03:05;;;;;;;41.28;16.98;;;;;;;;;;7420761;19;19927;-82
2024/03/04 09:05:51;;;;;;;;;;;;;;;;;;7423880;19;19941;-82
2024/03/04 09:08:38;;;;;;;40.15;14.18;;;;;;;;;;7420915;19;19917;-82
2024/03/04 09:11:24;;;;;;;39.90;14.63;;;;;;;;;;7420375;19;19948;-82
2024/03/04 09:14:09;;;;;;;38.20;15.10;;;;;;;;;;7418875;19;19918;-82
2024/03/04 09:16:53;;;;;;;38.25;14.23;;;;;;;;;;7417289;19;19926;-82
2024/03/04 09:19:41;;;;;;;38.60;14.27;;;;;;;;;;7417923;19;21178;-82
2024/03/04 09:22:25;;;;;;;42.15;14.73;;;;;;;;;;7417754;19;19997;-82
2024/03/04 09:25:12;;;;;;;38.70;15.13;;;;;;;;;;7418554;19;20329;-81
2024/03/04 09:28:04;;;;;;;38.17;15.50;;;;;;;;;;7416134;19;19915;-81
2024/03/04 09:30:51;;;;;;;35.67;14.13;;;;;;;;;;7421212;19;19915;-81
2024/03/04 09:33:37;;;;;;;40.17;14.80;;;;;;;;;;7420229;19;20329;-81
2024/03/04 09:36:26;;;;;;;39.15;14.07;;;;;;;;;;7416815;19;20366;-81
2024/03/04 09:39:15;;;;;;;34.97;12.70;;;;;;;;;;7418814;19;19915;-81
2024/03/04 09:42:01;;;;;;;34.20;13.98;;;;;;;;;;7416801;19;19954;-81
2024/03/04 09:44:46;;;;;;;35.47;13.00;;;;;;;;;;7416000;19;19918;-81
2024/03/04 09:47:30;;;;;;;35.13;13.88;;;;;;;;;;7413686;19;19935;-81
2024/03/04 09:50:19;;;;;;;35.17;13.07;;;;;;;;;;7418145;19;19933;-81
2024/03/04 09:53:07;;;;;;;34.05;13.90;;;;;;;;;;7413479;19;19918;-81
2024/03/04 09:55:55;;;;;;;39.88;14.52;;;;;;;;;;7417897;19;19954;-81
2024/03/04 09:58:44;;;;;;;36.65;13.88;;;;;;;;;;7413030;19;20018;-81
2024/03/04 10:01:29;;;;;;;41.42;14.48;;;;;;;;;;7416675;19;19915;-81
2024/03/04 10:04:17;;;;;;;31.77;13.52;;;;;;;;;;7416795;19;19939;-81
2024/03/04 10:07:01;;;;;;;35.30;13.43;;;;;;;;;;7412359;19;19921;-81
2024/03/04 10:09:48;;;;;;;39.20;14.45;;;;;;;;;;7414857;19;20008;-81
2024/03/04 10:12:32;;;;;;;39.42;14.15;;;;;;;;;;7416658;19;19925;-81
2024/03/04 10:15:17;;;;;;;37.00;13.80;;;;;;;;;;7416579;19;19959;-81
2024/03/04 10:18:11;;;;;;;40.50;14.45;;;;;;;;;;7409218;19;21420;-81
2024/03/04 10:20:57;;;;;;;32.38;13.48;;;;;;;;;;7404944;19;19932;-81
2024/03/04 10:23:47;;;;;;;33.97;13.15;;;;;;;;;;7411890;19;19929;-81
2024/03/04 10:26:44;;;;;;;33.78;13.48;;;;;;;;;;7413658;19;19931;-82
2024/03/04 10:29:41;;;;;;;37.70;14.23;;;;;;;;;;7444400;19;20395;-82
2024/03/04 10:32:28;;;;;;;37.15;13.40;;;;;;;;;;7447296;19;19933;-82
2024/03/04 10:35:13;;;;;;;31.42;12.48;;;;;;;;;;7445513;19;19918;-82
2024/03/04 10:38:01;;;;;;;42.60;14.32;;;;;;;;;;7444601;19;19944;-82
2024/03/04 10:40:49;;;;;;;35.22;13.30;;;;;;;;;;7443925;19;20351;-82
2024/03/04 10:43:36;;;;;;;33.28;12.40;;;;;;;;;;7448158;19;19919;-82
2024/03/04 10:46:26;;;;;;;37.17;13.27;;;;;;;;;;7446975;19;20531;-82
2024/03/04 10:49:10;;;;;;;36.53;12.80;;;;;;;;;;7443184;19;20354;-82
2024/03/04 10:51:57;;;;;;;34.83;13.70;;;;;;;;;;7449489;19;19926;-82
2024/03/04 10:54:44;;;;;;;36.05;13.75;;;;;;;;;;7447081;19;19922;-82
2024/03/04 10:57:29;;;;;;;30.02;13.40;;;;;;;;;;7444327;19;19914;-82
2024/03/04 11:00:25;;;;;;;34.20;12.98;;;;;;;;;;7445327;19;19918;-82
2024/03/04 11:03:16;;;;;;;29.98;11.85;;;;;;;;;;7446101;19;19926;-82
2024/03/04 11:06:04;;;;;;;28.98;11.73;;;;;;;;;;7446710;19;19918;-81
2024/03/04 11:08:55;;;;;;;34.70;12.88;;;;;;;;;;7445670;19;20239;-82
2024/03/04 11:11:44;;;;;;;29.17;12.05;;;;;;;;;;7448380;19;19930;-82
2024/03/04 11:14:38;;;;;;;29.02;11.60;;;;;;;;;;7445994;19;19926;-81
2024/03/04 11:17:28;;;;;;;29.35;12.13;;;;;;;;;;7440002;19;19926;-82
2024/03/04 11:20:18;;;;;;;30.85;11.80;;;;;;;;;;7443516;19;19946;-82
2024/03/04 11:23:04;;;;;;;30.13;12.35;;;;;;;;;;7447075;19;19907;-81
2024/03/04 11:25:51;;;;;;;30.10;12.23;;;;;;;;;;7448542;19;20260;-81
2024/03/04 11:28:38;;;;;;;25.83;11.95;;;;;;;;;;7445614;19;19961;-82
2024/03/04 11:31:27;;;;;;;30.70;11.75;;;;;;;;;;7442792;19;19925;-81
2024/03/04 11:34:13;;;;;;;34.33;12.65;;;;;;;;;;7447318;19;19914;-81
2024/03/04 11:37:02;;;;;;;25.67;10.93;;;;;;;;;;7442046;19;21760;-81
2024/03/04 11:39:47;;;;;;;31.98;12.65;;;;;;;;;;7431359;19;19917;-81
2024/03/04 11:42:35;;;;;;;25.02;11.43;;;;;;;;;;7418135;19;19939;-81
2024/03/04 11:45:24;;;;;;;30.92;11.43;;;;;;;;;;7419272;19;19974;-81
2024/03/04 11:48:31;;;;;;;29.98;11.57;;;;;;;;;;7414301;19;20269;-83
2024/03/04 11:51:46;;;;;;;26.08;10.77;;;;;;;;;;7416518;19;19919;-81
2024/03/04 11:54:48;;;;;;;26.00;10.18;;;;;;;;;;7419328;19;19918;-81
2024/03/04 11:57:32;;;;;;;29.13;11.15;;;;;;;;;;7417375;19;19914;-81
2024/03/04 12:00:19;;;;;;;25.52;10.48;;;;;;;;;;7418028;19;19907;-81
2024/03/04 12:03:06;;;;;;;23.25;10.52;;;;;;;;;;7417823;19;19915;-81
2024/03/04 12:05:53;;;;;;;29.52;10.60;;;;;;;;;;7419031;19;19914;-81
2024/03/04 12:08:41;;;;;;;28.17;10.82;;;;;;;;;;7416108;19;19910;-81
2024/03/04 12:11:31;;;;;;;23.98;10.90;;;;;;;;;;7415729;19;19915;-81
2024/03/04 12:14:16;;;;;;;25.90;10.73;;;;;;;;;;7418563;19;19945;-81
2024/03/04 12:17:01;;;;;;;26.25;10.25;;;;;;;;;;7417730;19;19918;-81
2024/03/04 12:19:54;;;;;;;30.75;11.52;;;;;;;;;;7417438;19;19918;-81
2024/03/04 12:22:43;;;;;;;26.23;10.07;;;;;;;;;;7417724;19;19927;-81
2024/03/04 12:25:28;;;;;;;32.63;12.05;;;;;;;;;;7417909;19;19918;-81
2024/03/04 12:28:22;;;;;;;29.10;12.05;;;;;;;;;;7415980;19;19934;-81
2024/03/04 12:31:10;;;;;;;;;;;;;;;;;;7419400;19;19945;-81
2024/03/04 12:33:57;;;;;;;25.63;10.60;;;;;;;;;;7414570;19;19919;-81
2024/03/04 12:36:44;;;;;;;29.67;12.52;;;;;;;;;;7414791;19;19919;-81
2024/03/04 12:39:33;;;;;;;31.05;12.50;;;;;;;;;;7416779;19;19911;-81
2024/03/04 12:42:21;;;;;;;;;;;;;;;;;;7418834;19;19919;-81
2024/03/04 12:45:09;;;;;;;28.95;10.82;;;;;;;;;;7416494;19;19951;-81
2024/03/04 12:47:55;;;;;;;30.02;11.82;;;;;;;;;;7416141;19;19937;-82
2024/03/04 12:50:43;;;;;;;27.27;11.07;;;;;;;;;;7415094;19;19942;-82
2024/03/04 12:53:30;;;;;;;29.95;11.43;;;;;;;;;;7413902;19;19918;-82
2024/03/04 12:56:16;;;;;;;30.25;10.75;;;;;;;;;;7418652;19;20005;-82
2024/03/04 12:59:01;;;;;;;31.15;12.40;;;;;;;;;;7415982;19;19914;-82
2024/03/04 13:01:48;;;;;;;33.88;11.90;;;;;;;;;;7416624;19;19907;-82
2024/03/04 13:04:32;;;;;;;32.50;13.07;;;;;;;;;;7416212;19;19951;-82
2024/03/04 13:07:17;;;;;;;28.42;12.32;;;;;;;;;;7416419;19;20267;-82
2024/03/04 13:10:05;;;;;;;32.47;12.43;;;;;;;;;;7413408;19;19914;-82
2024/03/04 13:12:50;;;;;;;25.95;11.50;;;;;;;;;;7419596;19;20001;-81
2024/03/04 13:15:40;;;;;;;29.40;12.43;;;;;;;;;;7416341;19;19914;-81
2024/03/04 13:18:27;;;;;;;36.58;13.10;;;;;;;;;;7413812;19;19978;-81
2024/03/04 13:21:12;;;;;;;33.85;14.05;;;;;;;;;;7418405;19;19921;-81
2024/03/04 13:23:58;;;;;;;31.80;13.13;;;;;;;;;;7416185;19;19910;-81
2024/03/04 13:26:43;;;;;;;33.60;13.10;;;;;;;;;;7414021;19;19918;-81
2024/03/04 13:29:30;;;;;;;37.58;14.60;;;;;;;;;;7415474;19;19929;-81
2024/03/04 13:32:14;;;;;;;33.25;13.02;;;;;;;;;;7414035;19;19952;-82
2024/03/04 13:35:07;;;;;;;29.48;12.57;;;;;;;;;;7415319;19;19919;-81
2024/03/04 13:37:57;;;;;;;30.80;12.18;;;;;;;;;;7414489;19;20329;-82
2024/03/04 13:40:41;;;;;;;35.38;14.70;;;;;;;;;;7417448;19;19926;-82
2024/03/04 13:43:26;;;;;;;38.22;14.50;;;;;;;;;;7413988;19;19938;-81
2024/03/04 13:46:12;;;;;;;35.90;13.65;;;;;;;;;;7415926;19;20421;-81
2024/03/04 13:48:59;;;;;;;35.58;13.57;;;;;;;;;;7414008;19;19921;-81
2024/03/04 13:51:47;;;;;;;32.80;12.30;;;;;;;;;;7415656;19;20003;-81
2024/03/04 13:54:33;;;;;;;25.48;11.50;;;;;;;;;;7412652;19;19911;-82
2024/03/04 13:57:18;;;;;;;34.35;12.00;;;;;;;;;;7415657;19;19906;-82
2024/03/04 14:00:12;;;;;;;28.58;11.85;;;;;;;;;;7415232;19;20257;-82
2024/03/04 14:02:57;;;;;;;35.72;12.57;;;;;;;;;;7417410;19;19926;-81
2024/03/04 14:05:41;;;;;;;31.98;13.95;;;;;;;;;;7416414;19;19919;-81
2024/03/04 14:08:28;;;;;;;35.47;14.48;;;;;;;;;;7413076;19;19974;-81
2024/03/04 14:11:15;;;;;;;36.47;14.30;;;;;;;;;;7416486;19;20337;-81
2024/03/04 14:14:04;;;;;;;31.05;12.27;;;;;;;;;;7417327;19;19914;-81
2024/03/04 14:16:48;;;;;;;35.75;13.20;;;;;;;;;;7415687;19;19916;-82
2024/03/04 14:19:32;;;;;;;40.20;14.65;;;;;;;;;;7415481;19;19918;-81
2024/03/04 14:22:20;;;;;;;33.92;12.55;;;;;;;;;;7417251;19;20270;-81
2024/03/04 14:25:07;;;;;;;32.55;14.80;;;;;;;;;;7416732;19;20322;-81
2024/03/04 14:27:54;;;;;;;35.45;13.70;;;;;;;;;;7414889;19;19910;-81
2024/03/04 14:30:38;;;;;;;36.30;13.25;;;;;;;;;;7417866;19;19903;-82
2024/03/04 14:33:26;;;;;;;32.58;11.50;;;;;;;;;;7416327;19;19919;-81
2024/03/04 14:36:13;;;;;;;31.02;12.32;;;;;;;;;;7418936;19;19929;-82
2024/03/04 14:39:00;;;;;;;29.13;11.80;;;;;;;;;;7416093;19;19915;-82
2024/03/04 14:41:51;;;;;;;33.80;11.52;;;;;;;;;;7415694;19;19986;-81
2024/03/04 14:44:40;;;;;;;31.10;13.20;;;;;;;;;;7414799;19;19922;-81
2024/03/04 14:47:24;;;;;;;33.22;12.30;;;;;;;;;;7415118;19;19919;-81
2024/03/04 14:50:10;;;;;;;32.55;13.57;;;;;;;;;;7412776;19;19989;-81
2024/03/04 14:53:01;;;;;;;29.27;11.48;;;;;;;;;;7414141;19;19934;-82
2024/03/04 14:55:46;;;;;;;28.88;12.40;;;;;;;;;;7415769;19;19919;-82
2024/03/04 14:58:35;;;;;;;35.28;12.82;;;;;;;;;;7410950;19;19918;-80
2024/03/04 15:01:23;;;;;;;26.38;11.23;;;;;;;;;;7413898;19;19929;-81
2024/03/04 15:04:10;;;;;;;30.13;12.20;;;;;;;;;;7413306;19;19910;-82
2024/03/04 15:06:54;;;;;;;32.45;11.95;;;;;;;;;;7412973;19;20368;-81
2024/03/04 15:09:39;;;;;;;27.48;11.32;;;;;;;;;;7412776;19;19907;-81
2024/03/04 15:12:25;;;;;;;30.73;11.77;;;;;;;;;;7414496;19;19918;-82
2024/03/04 15:15:14;;;;;;;33.88;12.88;;;;;;;;;;7413966;19;19927;-82
2024/03/04 15:18:01;;;;;;;27.90;11.90;;;;;;;;;;7418513;19;19936;-81
2024/03/04 15:20:47;;;;;;;29.95;11.63;;;;;;;;;;7422109;19;19925;-81
2024/03/04 15:23:32;;;;;;;27.60;11.98;;;;;;;;;;7419834;19;20349;-82
2024/03/04 15:26:16;;;;;;;28.90;11.27;;;;;;;;;;7420142;19;19978;-81
2024/03/04 15:29:04;;;;;;;27.25;11.07;;;;;;;;;;7420933;19;20010;-82
2024/03/04 15:31:53;;;;;;;31.70;11.73;;;;;;;;;;7419636;19;19914;-81
2024/03/04 15:34:40;;;;;;;28.05;11.43;;;;;;;;;;7417819;19;19922;-82
2024/03/04 15:37:24;;;;;;;26.85;12.95;;;;;;;;;;7418795;19;19918;-82
2024/03/04 15:40:12;;;;;;;32.47;13.48;;;;;;;;;;7418433;19;20010;-81
2024/03/04 15:43:01;;;;;;;33.33;13.00;;;;;;;;;;7419734;19;20486;-81
2024/03/04 15:45:45;;;;;;;33.53;13.10;;;;;;;;;;7420761;19;19915;-82
2024/03/04 15:48:35;;;;;;;29.63;12.73;;;;;;;;;;7415564;19;20361;-82
2024/03/04 15:51:22;;;;;;;34.90;12.77;;;;;;;;;;7418924;19;19922;-82
2024/03/04 15:54:09;;;;;;;32.97;13.63;;;;;;;;;;7416904;19;19930;-81
2024/03/04 15:56:53;;;;;;;31.13;11.85;;;;;;;;;;7418281;19;19958;-81
2024/03/04 15:59:37;;;;;;;33.67;13.45;;;;;;;;;;7418248;19;19934;-81
2024/03/04 16:02:26;;;;;;;37.05;14.25;;;;;;;;;;7418775;19;19914;-81
2024/03/04 16:05:16;;;;;;;39.55;14.77;;;;;;;;;;7415843;19;19923;-81
2024/03/04 16:08:03;;;;;;;33.97;12.68;;;;;;;;;;7417387;19;19978;-81
2024/03/04 16:10:48;;;;;;;32.70;13.68;;;;;;;;;;7416486;19;19906;-81
2024/03/04 16:13:35;;;;;;;38.25;12.93;;;;;;;;;;7420267;19;19918;-81
2024/03/04 16:16:21;;;;;;;35.67;13.35;;;;;;;;;;7415330;19;19930;-83